createdAt,value
2023-03-29T00:00:29.970Z,2.66
2023-03-29T00:03:32.487Z,2.65
2023-03-29T00:06:47.002Z,2.66
2023-03-29T00:10:01.962Z,2.64
2023-03-29T00:13:10.986Z,2.62
2023-03-29T00:16:19.699Z,2.58
2023-03-29T00:19:27.972Z,2.55
2023-03-29T00:22:43.947Z,2.54
2023-03-29T00:25:51.975Z,2.52
2023-03-29T00:29:06.963Z,2.50
2023-03-29T00:32:29.011Z,2.47
2023-03-29T00:35:30.967Z,2.51
2023-03-29T00:38:46.970Z,2.49
2023-03-29T00:42:02.976Z,2.49
2023-03-29T00:45:19.444Z,2.34
2023-03-29T00:48:34.979Z,2.35
2023-03-29T00:51:44.008Z,2.29
2023-03-29T00:54:54.962Z,2.21
2023-03-29T00:58:20.959Z,2.21
2023-03-29T01:01:44.979Z,2.15
2023-03-29T01:05:07.006Z,2.17
2023-03-29T01:08:43.959Z,2.11
2023-03-29T01:11:54.095Z,2.06
2023-03-29T01:15:15.956Z,1.99
2023-03-29T01:18:30.974Z,2.00
2023-03-29T01:21:52.758Z,1.98
2023-03-29T01:25:36.980Z,1.97
2023-03-29T01:28:57.661Z,1.91
2023-03-29T01:32:22.987Z,1.94
2023-03-29T01:35:36.994Z,1.93
2023-03-29T01:38:56.992Z,1.94
2023-03-29T01:42:38.016Z,1.94
2023-03-29T01:45:57.582Z,1.88
2023-03-29T01:49:19.988Z,1.78
2023-03-29T01:52:35.949Z,1.90
2023-03-29T01:55:59.078Z,1.86
2023-03-29T01:59:24.981Z,1.75
2023-03-29T02:02:37.023Z,1.80
2023-03-29T02:05:46.561Z,1.65
2023-03-29T02:09:01.968Z,1.40
2023-03-29T02:12:12.961Z,1.25
2023-03-29T02:15:28.034Z,1.10
2023-03-29T02:18:42.944Z,0.99
2023-03-29T02:22:11.996Z,0.90
2023-03-29T02:25:21.012Z,0.81
2023-03-29T02:28:31.951Z,0.78
2023-03-29T02:32:02.753Z,0.78
2023-03-29T02:35:23.015Z,0.92
2023-03-29T02:38:38.969Z,1.04
2023-03-29T02:41:50.842Z,1.08
2023-03-29T02:45:03.953Z,1.18
2023-03-29T02:48:23.959Z,1.22
2023-03-29T02:51:34.313Z,1.26
2023-03-29T02:54:44.977Z,1.28
2023-03-29T02:57:53.799Z,1.15
2023-03-29T03:01:10.975Z,1.30
2023-03-29T03:04:19.961Z,1.23
2023-03-29T03:07:35.007Z,1.19
2023-03-29T03:10:43.566Z,0.99
2023-03-29T03:13:57.985Z,0.85
2023-03-29T03:17:06.937Z,0.66
2023-03-29T03:20:15.682Z,0.61
2023-03-29T03:23:31.963Z,0.52
2023-03-29T03:26:34.360Z,0.43
2023-03-29T03:29:48.970Z,0.36
2023-03-29T03:32:58.003Z,0.23
2023-03-29T03:36:11.056Z,0.13
2023-03-29T03:39:21.004Z,0.09
2023-03-29T03:42:29.725Z,0.04
2023-03-29T03:45:37.961Z,0.03
2023-03-29T03:48:53.996Z,-0.04
2023-03-29T03:51:55.936Z,-0.14
2023-03-29T03:55:10.964Z,0.09
2023-03-29T03:58:12.853Z,0.01
2023-03-29T04:01:34.972Z,-0.11
2023-03-29T04:04:37.125Z,-0.03
2023-03-29T04:07:51.944Z,-0.16
2023-03-29T04:11:02.183Z,-0.14
2023-03-29T04:14:16.968Z,-0.15
2023-03-29T04:17:31.977Z,-0.17
2023-03-29T04:20:40.945Z,-0.19
2023-03-29T04:23:55.973Z,-0.20
2023-03-29T04:27:04.608Z,-0.11
2023-03-29T04:30:13.949Z,-0.12
2023-03-29T04:33:28.978Z,-0.10
2023-03-29T04:36:37.812Z,-0.01
2023-03-29T04:39:52.957Z,-0.03
2023-03-29T04:43:01.889Z,0.04
2023-03-29T04:46:17.030Z,0.05
2023-03-29T04:49:32.951Z,-0.02
2023-03-29T04:52:41.955Z,0.00
2023-03-29T04:55:56.935Z,0.10
2023-03-29T04:59:16.267Z,0.16
2023-03-29T05:02:31.006Z,0.24
2023-03-29T05:05:39.952Z,0.58
2023-03-29T05:08:48.524Z,1.01
2023-03-29T05:12:02.974Z,1.52
2023-03-29T05:15:17.963Z,1.33
2023-03-29T05:18:33.940Z,1.25
2023-03-29T05:21:44.390Z,1.32
2023-03-29T05:24:59.968Z,1.30
2023-03-29T05:28:08.655Z,1.39
2023-03-29T05:31:24.984Z,1.49
2023-03-29T05:34:33.586Z,1.59
2023-03-29T05:37:42.011Z,1.48
2023-03-29T05:40:57.156Z,1.68
2023-03-29T05:44:05.813Z,1.76
2023-03-29T05:47:20.979Z,1.85
2023-03-29T05:50:22.964Z,1.91
2023-03-29T05:53:38.934Z,2.00
2023-03-29T05:56:47.986Z,2.13
2023-03-29T06:00:05.609Z,2.08
2023-03-29T06:07:24.951Z,2.24
2023-03-29T06:10:39.962Z,2.42
2023-03-29T06:13:54.977Z,2.56
2023-03-29T06:16:57.884Z,2.68
2023-03-29T06:20:17.253Z,2.86
2023-03-29T06:23:25.964Z,2.91
2023-03-29T06:26:34.951Z,3.03
2023-03-29T06:29:45.713Z,3.13
2023-03-29T06:44:11.942Z,3.45
2023-03-29T06:47:20.655Z,3.58
2023-03-29T07:01:31.978Z,3.73
2023-03-29T07:08:38.956Z,3.98
2023-03-29T07:16:10.996Z,4.09
2023-03-29T07:19:19.848Z,4.25
2023-03-29T07:22:27.953Z,4.42
2023-03-29T07:26:28.617Z,4.48
2023-03-29T07:29:37.927Z,4.38
2023-03-29T07:36:45.940Z,4.41
2023-03-29T07:39:54.491Z,4.51
2023-03-29T07:43:09.077Z,4.73
2023-03-29T07:46:17.642Z,5.03
2023-03-29T07:53:39.958Z,5.49
2023-03-29T08:04:26.622Z,5.86
2023-03-29T08:07:50.921Z,6.20
2023-03-29T08:11:05.894Z,6.26
2023-03-29T08:14:21.835Z,6.41
2023-03-29T08:17:33.831Z,6.52
2023-03-29T08:20:42.936Z,6.55
2023-03-29T08:23:57.917Z,6.62
2023-03-29T08:31:46.940Z,6.38
2023-03-29T08:34:55.526Z,6.49
2023-03-29T08:38:03.906Z,6.72
2023-03-29T08:41:48.942Z,6.89
2023-03-29T08:45:16.341Z,7.07
2023-03-29T08:48:36.927Z,7.51
2023-03-29T08:51:52.912Z,7.97
2023-03-29T09:18:37.945Z,10.19
2023-03-29T09:22:12.148Z,10.58
2023-03-29T09:33:18.926Z,10.48
2023-03-29T09:36:43.957Z,10.74
2023-03-29T09:39:46.040Z,10.59
2023-03-29T09:43:01.933Z,10.56
2023-03-29T09:46:25.505Z,10.41
2023-03-29T09:49:39.910Z,9.87
2023-03-29T09:52:56.941Z,10.17
2023-03-29T09:56:06.358Z,10.57
2023-03-29T10:06:58.918Z,11.12
2023-03-29T10:34:42.998Z,11.31
2023-03-29T10:49:12.934Z,12.56
2023-03-29T11:04:39.936Z,12.88
2023-03-29T11:08:35.068Z,12.75
2023-03-29T11:12:42.941Z,12.26
2023-03-29T11:16:13.462Z,11.61
2023-03-29T11:19:53.906Z,11.51
2023-03-29T11:23:33.973Z,11.33
2023-03-29T11:27:12.928Z,11.19
2023-03-29T11:30:43.943Z,11.79
2023-03-29T11:34:39.948Z,12.26
2023-03-29T11:37:57.923Z,12.58
2023-03-29T11:41:34.984Z,12.11
2023-03-29T11:44:47.024Z,12.37
2023-03-29T11:52:32.101Z,12.31
2023-03-29T11:55:53.940Z,12.09
2023-03-29T12:07:35.364Z,12.17
2023-03-29T12:11:29.949Z,12.00
2023-03-29T12:26:47.965Z,11.65
2023-03-29T12:30:05.809Z,11.94
2023-03-29T12:33:38.955Z,12.17
2023-03-29T12:37:05.930Z,11.67
2023-03-29T12:40:17.747Z,11.46
2023-03-29T12:51:38.039Z,11.56
2023-03-29T12:55:03.952Z,11.63
2023-03-29T12:59:22.985Z,11.58
2023-03-29T13:02:43.372Z,11.71
2023-03-29T13:06:06.827Z,11.68
2023-03-29T13:09:37.946Z,11.77
2023-03-29T13:12:47.974Z,11.23
2023-03-29T13:16:25.014Z,11.05
2023-03-29T13:20:01.987Z,11.01
2023-03-29T13:23:17.740Z,10.82
2023-03-29T13:26:38.950Z,11.12
2023-03-29T13:49:30.927Z,11.07
2023-03-29T13:53:10.962Z,11.61
2023-03-29T13:56:25.925Z,11.71
2023-03-29T13:59:50.841Z,11.74
2023-03-29T14:03:08.157Z,11.38
2023-03-29T14:06:29.984Z,11.41
2023-03-29T14:25:53.954Z,11.04
2023-03-29T14:29:16.940Z,11.04
2023-03-29T14:36:23.985Z,11.14
2023-03-29T14:39:40.977Z,11.18
2023-03-29T14:42:50.430Z,11.21
2023-03-29T14:53:42.974Z,11.16
2023-03-29T14:56:52.608Z,11.17
2023-03-29T15:00:09.950Z,11.23
2023-03-29T15:03:20.487Z,11.19
2023-03-29T15:06:31.950Z,11.25
2023-03-29T15:09:40.692Z,11.19
2023-03-29T15:12:57.930Z,11.16
2023-03-29T15:16:13.213Z,10.86
2023-03-29T15:19:31.964Z,10.85
2023-03-29T15:22:55.832Z,10.63
2023-03-29T15:26:12.926Z,10.52
2023-03-29T15:29:46.956Z,10.57
2023-03-29T15:33:01.985Z,10.75
2023-03-29T15:36:20.039Z,10.75
2023-03-29T15:39:29.770Z,10.76
2023-03-29T15:42:37.995Z,10.66
2023-03-29T15:45:47.795Z,10.75
2023-03-29T15:48:59.489Z,10.70
2023-03-29T15:52:13.953Z,10.80
2023-03-29T15:55:22.549Z,10.75
2023-03-29T15:58:33.960Z,10.75
2023-03-29T16:01:42.691Z,10.68
2023-03-29T16:05:05.978Z,10.55
2023-03-29T16:08:14.588Z,10.49
2023-03-29T16:11:29.989Z,10.42
2023-03-29T16:14:39.860Z,10.31
2023-03-29T16:17:48.029Z,10.26
2023-03-29T16:21:03.007Z,10.17
2023-03-29T16:24:29.962Z,10.15
2023-03-29T16:27:45.473Z,10.06
2023-03-29T16:30:59.971Z,10.08
2023-03-29T16:34:17.959Z,10.14
2023-03-29T16:37:20.475Z,10.17
2023-03-29T16:40:34.945Z,10.15
2023-03-29T16:43:44.135Z,10.10
2023-03-29T16:50:44.068Z,10.02
2023-03-29T16:53:58.978Z,9.97
2023-03-29T16:57:06.994Z,9.94
2023-03-29T17:00:23.965Z,9.91
2023-03-29T17:03:32.912Z,9.84
2023-03-29T17:06:42.347Z,9.79
2023-03-29T17:09:51.412Z,9.70
2023-03-29T17:17:10.369Z,9.68
2023-03-29T17:24:28.957Z,9.60
2023-03-29T17:27:45.181Z,9.60
2023-03-29T17:31:00.917Z,9.53
2023-03-29T17:38:18.976Z,9.52
2023-03-29T17:41:33.972Z,9.49
2023-03-29T17:44:48.951Z,9.46
2023-03-29T17:47:57.869Z,9.35
2023-03-29T17:51:07.352Z,9.36
2023-03-29T17:54:16.127Z,9.38
2023-03-29T17:57:25.425Z,9.37
2023-03-29T18:00:40.105Z,9.34
2023-03-29T18:03:43.399Z,9.35
2023-03-29T18:06:58.238Z,9.26
2023-03-29T18:10:00.882Z,9.24
2023-03-29T18:13:16.271Z,9.23
2023-03-29T18:16:26.406Z,9.16
2023-03-29T18:19:41.432Z,9.17
2023-03-29T18:27:12.410Z,9.20
2023-03-29T18:30:34.486Z,9.15
2023-03-29T18:33:44.367Z,9.10
2023-03-29T18:44:42.354Z,9.03
2023-03-29T18:47:57.448Z,9.01
2023-03-29T18:51:00.293Z,9.03
2023-03-29T18:54:15.423Z,9.00
2023-03-29T18:57:30.061Z,9.02
2023-03-29T19:00:32.720Z,9.00
2023-03-29T19:11:32.470Z,9.00
2023-03-29T19:18:39.534Z,8.98
2023-03-29T19:21:48.505Z,8.97
2023-03-29T19:32:53.061Z,8.88
2023-03-29T19:44:04.976Z,8.82
2023-03-29T19:47:23.430Z,8.79
2023-03-29T19:50:26.713Z,8.81
2023-03-29T19:53:43.939Z,8.74
2023-03-29T19:56:46.643Z,8.80
2023-03-29T20:00:03.428Z,8.80
2023-03-29T20:07:33.965Z,8.75
2023-03-29T20:10:48.974Z,8.71
2023-03-29T20:13:57.838Z,8.66
2023-03-29T20:17:06.981Z,8.70
2023-03-29T20:20:22.297Z,8.52
2023-03-29T20:23:31.034Z,8.66
2023-03-29T20:26:38.998Z,8.66
2023-03-29T20:30:00.961Z,8.65
2023-03-29T20:33:09.793Z,8.66
2023-03-29T20:40:28.978Z,8.52
2023-03-29T20:43:37.926Z,8.47
2023-03-29T20:46:52.998Z,8.44
2023-03-29T20:50:01.995Z,8.39
2023-03-29T20:57:24.007Z,8.36
2023-03-29T21:12:14.968Z,8.28
2023-03-29T21:15:23.482Z,8.26
2023-03-29T21:18:37.995Z,8.26
2023-03-29T21:21:46.831Z,8.26
2023-03-29T21:25:01.979Z,8.22
2023-03-29T21:28:16.994Z,8.30
2023-03-29T21:31:39.098Z,8.22
2023-03-29T21:34:47.605Z,8.16
2023-03-29T21:37:55.971Z,8.23
2023-03-29T21:41:10.993Z,8.20
2023-03-29T21:44:27.109Z,8.18
2023-03-29T21:47:36.090Z,8.17
2023-03-29T21:50:48.167Z,8.17
2023-03-29T21:53:57.000Z,8.15
2023-03-29T21:57:05.604Z,8.14
2023-03-29T22:00:19.987Z,8.00
2023-03-29T22:03:28.816Z,8.09
2023-03-29T22:06:36.994Z,7.97
2023-03-29T22:09:45.752Z,8.06
2023-03-29T22:13:01.020Z,8.09
2023-03-29T22:16:13.018Z,8.02
2023-03-29T22:19:27.991Z,8.01
2023-03-29T22:22:30.430Z,7.99
2023-03-29T22:25:44.976Z,8.01
2023-03-29T22:28:53.975Z,7.94
2023-03-29T22:32:16.151Z,7.98
2023-03-29T22:35:24.682Z,7.96
2023-03-29T22:38:34.010Z,7.94
2023-03-29T22:41:48.988Z,7.86
2023-03-29T22:44:57.509Z,7.82
2023-03-29T22:48:06.031Z,7.78
2023-03-29T22:51:15.095Z,7.78
2023-03-29T22:54:23.973Z,7.66
2023-03-29T22:57:38.985Z,7.72
2023-03-29T23:00:48.476Z,7.67
2023-03-29T23:03:57.031Z,7.62
2023-03-29T23:07:05.644Z,7.58
2023-03-29T23:10:14.982Z,7.51
2023-03-29T23:13:23.774Z,7.44
2023-03-29T23:16:38.966Z,7.40
2023-03-29T23:19:47.004Z,7.33
2023-03-29T23:22:55.844Z,7.25
2023-03-29T23:26:05.010Z,7.19
2023-03-29T23:29:20.965Z,7.12
2023-03-29T23:32:29.398Z,7.04
2023-03-29T23:35:44.022Z,6.93
2023-03-29T23:38:58.979Z,6.96
2023-03-29T23:42:01.149Z,6.91
2023-03-29T23:45:19.067Z,6.86
2023-03-29T23:48:20.967Z,6.82
2023-03-29T23:51:35.985Z,6.79
2023-03-29T23:54:51.018Z,6.80
2023-03-29T23:57:52.947Z,6.77
